createdAt,value
2017-12-23T00:52:53.481Z,50.76
2017-12-23T00:53:53.702Z,50.93
2017-12-23T00:54:53.732Z,50.82
2017-12-23T00:55:53.485Z,50.79
2017-12-23T00:56:53.684Z,50.77
2017-12-23T00:57:53.545Z,50.75
2017-12-23T00:58:53.686Z,50.9
2017-12-23T00:59:53.772Z,50.66
2017-12-23T01:00:53.498Z,50.92
2017-12-23T01:01:53.490Z,50.84
2017-12-23T01:02:53.512Z,50.9
2017-12-23T01:03:53.510Z,50.79
2017-12-23T01:04:53.515Z,50.95
2017-12-23T01:05:53.730Z,51.01
2017-12-23T01:06:53.739Z,50.85
2017-12-23T01:07:53.514Z,51.02
2017-12-23T01:08:53.728Z,50.75
2017-12-23T01:09:53.737Z,50.81
2017-12-23T01:10:53.699Z,50.78
2017-12-23T01:11:53.697Z,50.8
2017-12-23T01:12:53.724Z,51.14
2017-12-23T01:13:53.679Z,50.7
2017-12-23T01:14:53.517Z,50.9
2017-12-23T01:15:53.731Z,50.85
2017-12-23T01:16:53.707Z,51.12
2017-12-23T01:17:53.528Z,50.66
2017-12-23T01:18:53.709Z,50.87
2017-12-23T01:19:53.749Z,50.9
2017-12-23T01:20:53.736Z,50.87
2017-12-23T01:21:53.517Z,50.93
2017-12-23T01:22:53.593Z,51.05
2017-12-23T01:23:53.736Z,50.88
2017-12-23T01:24:53.501Z,50.78
2017-12-23T01:25:53.735Z,51.02
2017-12-23T01:26:53.744Z,50.91
2017-12-23T01:27:53.707Z,50.84
2017-12-23T01:28:53.539Z,50.92
2017-12-23T01:29:53.533Z,50.86
2017-12-23T01:30:53.709Z,50.85
2017-12-23T01:31:53.541Z,50.89
2017-12-23T01:32:53.549Z,50.9
2017-12-23T01:33:53.522Z,50.94
2017-12-23T01:34:53.726Z,50.86
2017-12-23T01:35:53.743Z,50.85
2017-12-23T01:36:53.589Z,50.77
2017-12-23T01:37:53.548Z,50.99
2017-12-23T01:38:53.716Z,50.77
2017-12-23T01:39:53.518Z,50.92
2017-12-23T01:40:53.525Z,50.91
2017-12-23T01:41:53.532Z,50.64
2017-12-23T01:42:53.513Z,50.84
2017-12-23T01:43:53.540Z,50.8
2017-12-23T01:44:53.515Z,50.78
2017-12-23T01:45:53.528Z,50.86
2017-12-23T01:46:53.734Z,50.94
2017-12-23T01:47:53.543Z,50.69
2017-12-23T01:48:53.546Z,50.9
2017-12-23T01:49:53.721Z,50.91
2017-12-23T01:50:53.520Z,50.88
2017-12-23T01:51:53.733Z,50.78
2017-12-23T01:52:53.758Z,50.95
2017-12-23T01:53:53.642Z,51.01
2017-12-23T01:54:53.726Z,50.73
2017-12-23T01:55:53.877Z,50.89
2017-12-23T01:56:53.559Z,51.05
2017-12-23T01:57:53.741Z,50.83
2017-12-23T01:58:53.990Z,50.96
2017-12-23T01:59:53.726Z,50.63
2017-12-23T02:00:53.530Z,50.84
2017-12-23T02:01:53.744Z,50.98
2017-12-23T02:02:53.737Z,51.06
2017-12-23T02:03:53.566Z,51
2017-12-23T02:04:53.720Z,51.11
2017-12-23T02:05:53.558Z,50.94
2017-12-23T02:06:53.749Z,50.91
2017-12-23T02:07:53.724Z,50.96
2017-12-23T02:08:53.774Z,50.89
2017-12-23T02:09:53.741Z,51.08
2017-12-23T02:10:53.757Z,51.06
2017-12-23T02:11:53.538Z,50.74
2017-12-23T02:12:53.545Z,51.17
2017-12-23T02:13:53.726Z,51.11
2017-12-23T02:14:53.530Z,50.88
2017-12-23T02:15:53.776Z,50.44
2017-12-23T02:16:53.537Z,50.96
2017-12-23T02:17:53.751Z,50.97
2017-12-23T02:18:53.566Z,51.01
2017-12-23T02:19:53.556Z,51.15
2017-12-23T02:20:53.759Z,50.96
2017-12-23T02:21:53.786Z,51.08
2017-12-23T02:22:53.571Z,50.71
2017-12-23T02:23:53.566Z,50.99
2017-12-23T02:24:53.775Z,50.78
2017-12-23T02:25:53.777Z,51.08
2017-12-23T02:26:53.761Z,50.56
2017-12-23T02:27:53.546Z,50.92
2017-12-23T02:28:53.798Z,50.87
2017-12-23T02:29:53.548Z,51.03
2017-12-23T02:30:53.766Z,50.8
2017-12-23T02:31:53.781Z,50.59
2017-12-23T02:32:53.727Z,51.17
2017-12-23T02:33:53.805Z,50.97
2017-12-23T02:34:53.791Z,50.93
2017-12-23T02:35:53.758Z,50.86
2017-12-23T02:36:53.777Z,50.8
2017-12-23T02:37:53.779Z,50.7
2017-12-23T02:38:53.787Z,50.87
2017-12-23T02:39:53.763Z,50.83
2017-12-23T02:40:53.748Z,51.01
2017-12-23T02:41:53.574Z,50.78
2017-12-23T02:42:53.579Z,51.16
2017-12-23T02:43:53.779Z,50.97
2017-12-23T02:44:53.755Z,51
2017-12-23T02:45:53.766Z,50.9
2017-12-23T02:46:53.757Z,51.07
2017-12-23T02:47:53.761Z,50.62
2017-12-23T02:48:53.782Z,50.91
2017-12-23T02:49:53.791Z,51.09
2017-12-23T02:50:53.755Z,51.03
2017-12-23T02:51:53.785Z,51
2017-12-23T02:52:53.748Z,51.09
2017-12-23T02:53:53.582Z,50.79
2017-12-23T02:54:53.584Z,50.95
2017-12-23T02:55:53.820Z,51.12
2017-12-23T02:56:53.757Z,50.84
2017-12-23T02:57:53.788Z,51.11
2017-12-23T02:58:53.582Z,50.95
2017-12-23T02:59:53.583Z,50.83
2017-12-23T03:00:53.748Z,50.91
2017-12-23T03:01:53.590Z,51.28
2017-12-23T03:02:53.547Z,51.11
2017-12-23T03:03:53.545Z,51.06
2017-12-23T03:04:53.559Z,51.08
2017-12-23T03:05:53.577Z,51.38
2017-12-23T03:06:53.762Z,51.14
2017-12-23T03:07:53.557Z,51.02
2017-12-23T03:08:53.594Z,50.9
2017-12-23T03:09:53.770Z,51.1
2017-12-23T03:10:53.772Z,50.97
2017-12-23T03:11:53.584Z,51.06
2017-12-23T03:12:53.766Z,50.97
2017-12-23T03:13:53.794Z,51.24
2017-12-23T03:14:53.630Z,50.96
2017-12-23T03:15:53.567Z,51.03
2017-12-23T03:16:53.587Z,51.02
2017-12-23T03:17:53.772Z,51.19
2017-12-23T03:18:53.642Z,50.9
2017-12-23T03:19:53.803Z,51.06
2017-12-23T03:20:53.789Z,50.95
2017-12-23T03:21:53.566Z,50.95
2017-12-23T03:22:53.790Z,51.17
2017-12-23T03:23:53.776Z,50.88
2017-12-23T03:24:53.835Z,51
2017-12-23T03:25:53.782Z,51.16
2017-12-23T03:26:53.680Z,51.24
2017-12-23T03:27:53.804Z,50.68
2017-12-23T03:28:53.760Z,51.31
2017-12-23T03:29:53.834Z,50.67
2017-12-23T03:30:53.783Z,50.86
2017-12-23T03:31:53.791Z,51.04
2017-12-23T03:32:53.639Z,51.03
2017-12-23T03:33:53.770Z,51.11
2017-12-23T03:34:53.615Z,50.99
2017-12-23T03:35:53.571Z,51.3
2017-12-23T03:36:53.584Z,50.88
2017-12-23T03:37:53.583Z,50.93
2017-12-23T03:38:53.592Z,51.08
2017-12-23T03:39:53.575Z,51.1
2017-12-23T03:40:53.562Z,51.41
2017-12-23T03:41:53.797Z,50.82
2017-12-23T03:42:53.775Z,51.14
2017-12-23T03:43:53.588Z,51.42
2017-12-23T03:44:53.592Z,50.9
2017-12-23T03:45:53.749Z,51.15
2017-12-23T03:46:53.597Z,51.42
2017-12-23T03:47:53.774Z,51.09
2017-12-23T03:48:53.557Z,50.95
2017-12-23T03:49:53.587Z,50.97
2017-12-23T03:50:53.583Z,50.95
2017-12-23T03:51:53.792Z,51.05
2017-12-23T03:52:53.564Z,50.97
2017-12-23T03:53:53.603Z,51.15
2017-12-23T03:54:53.598Z,51.11
2017-12-23T03:55:53.587Z,51.13
2017-12-23T03:56:53.609Z,51.12
2017-12-23T03:57:53.865Z,51.16
2017-12-23T03:58:53.551Z,51
2017-12-23T03:59:53.605Z,50.82
2017-12-23T04:00:53.773Z,51.17
2017-12-23T04:01:53.745Z,50.85
2017-12-23T04:02:53.579Z,51.07
2017-12-23T04:03:53.603Z,50.96
2017-12-23T04:04:53.560Z,51.44
2017-12-23T04:05:53.802Z,51.36
2017-12-23T04:06:53.774Z,51.06
2017-12-23T04:07:53.793Z,50.81
2017-12-23T04:08:53.593Z,51.07
2017-12-23T04:09:53.748Z,51.11
2017-12-23T04:10:53.822Z,51.25
2017-12-23T04:11:53.778Z,51.11
2017-12-23T04:12:53.605Z,51.19
2017-12-23T04:13:53.576Z,51
2017-12-23T04:14:53.577Z,51.11
2017-12-23T04:15:53.611Z,51.18
2017-12-23T04:16:53.765Z,51.01
2017-12-23T04:17:53.614Z,51.11
2017-12-23T04:18:53.602Z,51.05
2017-12-23T04:19:53.598Z,50.91
2017-12-23T04:20:53.777Z,51.04
2017-12-23T04:21:53.818Z,51.38
2017-12-23T04:22:53.600Z,51.45
2017-12-23T04:23:53.780Z,51.05
2017-12-23T04:24:53.568Z,51.13
2017-12-23T04:25:53.804Z,51.08
2017-12-23T04:26:53.818Z,51.24
2017-12-23T04:27:53.755Z,51.48
2017-12-23T04:28:53.794Z,51.11
2017-12-23T04:29:53.573Z,50.86
2017-12-23T04:30:53.605Z,51
2017-12-23T04:31:53.603Z,51.18
2017-12-23T04:32:53.623Z,51.33
2017-12-23T04:33:53.762Z,51.15
2017-12-23T04:34:53.802Z,51.08
2017-12-23T04:35:53.770Z,51.42
2017-12-23T04:36:53.822Z,51.07
2017-12-23T04:37:53.605Z,50.71
2017-12-23T04:38:53.785Z,51.39
2017-12-23T04:39:53.571Z,51.27
2017-12-23T04:40:53.606Z,51.09
2017-12-23T04:41:53.586Z,51.37
2017-12-23T04:42:53.586Z,51.35
2017-12-23T04:43:53.615Z,51.15
2017-12-23T04:44:53.805Z,51.13
2017-12-23T04:45:53.782Z,51.02
2017-12-23T04:46:53.788Z,51.19
2017-12-23T04:47:53.802Z,51.25
2017-12-23T04:48:53.595Z,51
2017-12-23T04:49:53.798Z,51.17
2017-12-23T04:50:53.590Z,51.05
2017-12-23T04:51:53.800Z,51.1
2017-12-23T04:52:53.589Z,50.83
2017-12-23T04:53:53.814Z,51.22
2017-12-23T04:54:53.768Z,51.16
2017-12-23T04:55:53.564Z,51.18
2017-12-23T04:56:53.611Z,51.17
2017-12-23T04:57:54.016Z,51.08
2017-12-23T04:58:53.788Z,51.47
2017-12-23T04:59:53.852Z,50.82
2017-12-23T05:00:53.766Z,51.01
2017-12-23T05:01:53.589Z,51.18
2017-12-23T05:02:54.205Z,51.2
2017-12-23T05:03:53.595Z,50.75
2017-12-23T05:05:53.609Z,51.04
2017-12-23T05:06:53.771Z,51.34
2017-12-23T05:07:53.833Z,51.22
2017-12-23T05:08:53.611Z,51.1
2017-12-23T05:09:53.785Z,51.32
2017-12-23T05:10:53.773Z,51.04
2017-12-23T05:11:53.800Z,50.9
2017-12-23T05:12:53.809Z,51.11
2017-12-23T05:13:53.606Z,50.89
2017-12-23T05:14:54.607Z,51.06
2017-12-23T05:15:53.594Z,51.03
2017-12-23T05:17:53.824Z,50.86
2017-12-23T05:18:53.829Z,50.83
2017-12-23T05:19:53.837Z,50.77
2017-12-23T05:20:53.610Z,50.75
2017-12-23T05:21:53.825Z,50.5
2017-12-23T05:22:53.828Z,50.73
2017-12-23T05:23:53.599Z,50.49
2017-12-23T05:24:53.790Z,50.38
2017-12-23T05:25:53.786Z,50.54
2017-12-23T05:26:53.640Z,50.27
2017-12-23T05:27:54.100Z,50.4
2017-12-23T05:28:53.595Z,50.31
2017-12-23T05:29:53.803Z,50.32
2017-12-23T05:30:53.854Z,50.36
2017-12-23T05:31:53.794Z,50.41
2017-12-23T05:32:53.622Z,50.25
2017-12-23T05:33:53.621Z,50.26
2017-12-23T05:34:53.600Z,50.17
2017-12-23T05:35:53.623Z,50.53
2017-12-23T05:36:53.795Z,50.18
2017-12-23T05:37:53.563Z,50.28
2017-12-23T05:38:53.606Z,50.34
2017-12-23T05:39:53.794Z,50.07
2017-12-23T05:40:53.597Z,50.26
2017-12-23T05:41:53.593Z,50.17
2017-12-23T05:42:53.619Z,50.29
2017-12-23T05:43:53.827Z,50.17
2017-12-23T05:44:53.832Z,50.13
2017-12-23T05:45:53.806Z,50.25
2017-12-23T05:46:53.630Z,50.17
2017-12-23T05:47:53.796Z,50.21
2017-12-23T05:48:53.866Z,50.11
2017-12-23T05:49:53.809Z,50.03
2017-12-23T05:50:53.582Z,50.06
2017-12-23T05:51:53.613Z,50.06
2017-12-23T05:52:53.804Z,50.05
2017-12-23T05:53:53.842Z,50.05
2017-12-23T05:54:53.799Z,50.1
2017-12-23T05:55:53.816Z,49.93
2017-12-23T05:56:53.798Z,49.95
2017-12-23T05:57:53.808Z,50.01
2017-12-23T05:58:53.622Z,49.97
2017-12-23T05:59:53.836Z,49.92
2017-12-23T06:00:53.665Z,49.9
2017-12-23T06:01:53.906Z,49.93
2017-12-23T06:02:53.628Z,50.05
2017-12-23T06:03:53.586Z,50.04
2017-12-23T06:04:53.837Z,50.02
2017-12-23T06:05:53.845Z,50.01
2017-12-23T06:06:53.823Z,49.91
2017-12-23T06:07:53.597Z,49.95
2017-12-23T06:08:53.835Z,49.86
2017-12-23T06:09:53.658Z,49.96
2017-12-23T06:10:53.625Z,49.89
2017-12-23T06:11:53.813Z,49.87
2017-12-23T06:12:53.595Z,49.71
2017-12-23T06:13:53.826Z,49.86
2017-12-23T06:14:53.869Z,49.76
2017-12-23T06:15:53.650Z,49.63
2017-12-23T06:16:53.852Z,49.74
2017-12-23T06:17:53.613Z,49.73
2017-12-23T06:18:53.790Z,49.73
2017-12-23T06:19:53.855Z,49.89
2017-12-23T06:20:53.850Z,49.71
2017-12-23T06:21:53.782Z,49.75
2017-12-23T06:22:53.610Z,49.76
2017-12-23T06:23:53.792Z,49.6
2017-12-23T06:24:53.787Z,49.77
2017-12-23T06:25:53.830Z,49.75
2017-12-23T06:26:53.802Z,49.77
2017-12-23T06:27:53.642Z,49.63
2017-12-23T06:28:53.820Z,49.74
2017-12-23T06:29:53.644Z,49.81
2017-12-23T06:30:53.886Z,49.62
2017-12-23T06:31:53.621Z,49.66
2017-12-23T06:32:53.677Z,49.62
2017-12-23T06:33:53.843Z,49.54
2017-12-23T06:34:53.837Z,49.5
2017-12-23T06:35:53.808Z,49.73
2017-12-23T06:36:53.632Z,49.72
2017-12-23T06:37:53.628Z,49.58
2017-12-23T06:38:53.839Z,49.48
2017-12-23T06:39:53.653Z,49.47
2017-12-23T06:40:53.650Z,49.4
2017-12-23T06:41:53.627Z,49.43
2017-12-23T06:42:53.793Z,49.59
2017-12-23T06:43:53.843Z,49.49
2017-12-23T06:44:53.628Z,49.58
2017-12-23T06:45:53.634Z,49.57
2017-12-23T06:46:53.856Z,49.63
2017-12-23T06:47:53.810Z,49.44
2017-12-23T06:48:53.623Z,49.34
2017-12-23T06:49:53.622Z,49.49
2017-12-23T06:50:53.824Z,49.47
2017-12-23T06:51:53.829Z,49.36
2017-12-23T06:52:53.623Z,49.32
2017-12-23T06:53:53.636Z,49.62
2017-12-23T06:54:53.636Z,49.39
2017-12-23T06:55:53.839Z,49.32
2017-12-23T06:56:53.668Z,49.5
2017-12-23T06:57:53.687Z,49.42
2017-12-23T06:58:53.636Z,49.4
2017-12-23T06:59:53.817Z,49.38
2017-12-23T07:00:53.857Z,49.35
2017-12-23T07:01:53.853Z,49.47
2017-12-23T07:02:53.677Z,49.46
2017-12-23T07:03:53.858Z,49.55
2017-12-23T07:04:53.621Z,49.47
2017-12-23T07:05:53.645Z,49.49
2017-12-23T07:06:53.647Z,49.5
2017-12-23T07:07:53.886Z,49.36
2017-12-23T07:08:53.652Z,49.56
2017-12-23T07:09:53.639Z,49.36
2017-12-23T07:10:53.859Z,49.49
2017-12-23T07:11:53.621Z,49.44
2017-12-23T07:12:53.883Z,49.52
2017-12-23T07:13:53.838Z,49.44
2017-12-23T07:14:53.833Z,49.29
2017-12-23T07:15:53.840Z,49.57
2017-12-23T07:16:53.808Z,49.63
2017-12-23T07:17:53.710Z,49.41
2017-12-23T07:18:53.820Z,49.43
2017-12-23T07:19:53.645Z,49.41
2017-12-23T07:20:53.639Z,49.44
2017-12-23T07:21:53.853Z,49.49
2017-12-23T07:22:53.898Z,49.51
2017-12-23T07:23:53.876Z,49.4
2017-12-23T07:24:53.636Z,49.32
2017-12-23T07:25:53.842Z,49.37
2017-12-23T07:26:53.818Z,49.42
2017-12-23T07:27:53.818Z,49.44
2017-12-23T07:28:53.880Z,49.47
2017-12-23T07:29:53.818Z,49.35
2017-12-23T07:30:53.841Z,49.42
2017-12-23T07:31:53.659Z,49.29
2017-12-23T07:32:53.834Z,49.35
2017-12-23T07:33:53.899Z,49.32
2017-12-23T07:34:53.840Z,49.32
2017-12-23T07:35:53.650Z,49.29
2017-12-23T07:36:53.838Z,49.23
2017-12-23T07:37:53.865Z,49.28
2017-12-23T07:38:53.656Z,49.25
2017-12-23T07:39:53.858Z,49.51
2017-12-23T07:40:53.646Z,49.14
2017-12-23T07:41:53.835Z,49.36
2017-12-23T07:42:53.676Z,49.31
2017-12-23T07:43:53.836Z,49.19
2017-12-23T07:44:53.648Z,49.38
2017-12-23T07:45:53.843Z,49.17
2017-12-23T07:46:53.856Z,49.34
2017-12-23T07:47:53.658Z,49.51
2017-12-23T07:48:53.717Z,49.23
2017-12-23T07:49:53.858Z,49.26
2017-12-23T07:50:53.853Z,49.4
2017-12-23T07:51:53.674Z,49.42
2017-12-23T07:52:53.653Z,49.4
2017-12-23T07:53:53.933Z,49.31
2017-12-23T07:54:53.844Z,49.25
2017-12-23T07:55:53.664Z,49.26
2017-12-23T07:56:53.894Z,49.34
2017-12-23T07:57:53.882Z,49.4
2017-12-23T07:58:53.651Z,49.21
2017-12-23T07:59:53.653Z,49.25
2017-12-23T08:00:53.910Z,49.29
2017-12-23T08:01:53.669Z,49.31
2017-12-23T08:02:53.863Z,49.42
2017-12-23T08:03:53.669Z,49.19
2017-12-23T08:04:53.954Z,49.43
2017-12-23T08:05:53.878Z,49.27
2017-12-23T08:06:53.878Z,49.41
2017-12-23T08:07:53.877Z,49.29
2017-12-23T08:08:53.884Z,49.2
2017-12-23T08:09:53.670Z,49.28
2017-12-23T08:10:53.646Z,49.41
2017-12-23T08:11:53.679Z,49.29
2017-12-23T08:12:53.687Z,49.38
2017-12-23T08:13:54.171Z,49.2
2017-12-23T08:14:53.679Z,49.42
2017-12-23T08:15:53.900Z,49.25
2017-12-23T08:16:53.895Z,49.31
2017-12-23T08:17:53.884Z,49.37
2017-12-23T08:18:53.708Z,49.17
2017-12-23T08:19:53.894Z,49.41
2017-12-23T08:20:53.868Z,49.32
2017-12-23T08:21:53.905Z,49.25
2017-12-23T08:22:53.683Z,49.15
2017-12-23T08:23:53.686Z,49.05
2017-12-23T08:24:53.865Z,49.31
2017-12-23T08:25:53.881Z,49.37
2017-12-23T08:26:53.944Z,49.21
2017-12-23T08:27:53.680Z,49.04
2017-12-23T08:28:53.680Z,49.23
2017-12-23T08:29:53.865Z,49.19
2017-12-23T08:30:53.700Z,49.19
2017-12-23T08:31:53.855Z,49.01
2017-12-23T08:32:53.690Z,49.04
2017-12-23T08:33:53.901Z,49.25
2017-12-23T08:34:53.876Z,49.19
2017-12-23T08:35:53.785Z,49.11
2017-12-23T08:36:53.670Z,49.12
2017-12-23T08:37:53.912Z,49.03
2017-12-23T08:38:53.862Z,49.11
2017-12-23T08:39:53.876Z,48.97
2017-12-23T08:40:53.708Z,49.14
2017-12-23T08:41:53.893Z,49.18
2017-12-23T08:42:53.902Z,49.18
2017-12-23T08:43:53.700Z,49.11
2017-12-23T08:44:53.716Z,49.22
2017-12-23T08:45:53.925Z,49.04
2017-12-23T08:46:53.690Z,49.19
2017-12-23T08:47:56.052Z,49.03
2017-12-23T08:48:53.869Z,48.98
2017-12-23T08:49:53.912Z,49.17
2017-12-23T08:50:53.684Z,49.18
2017-12-23T08:51:53.891Z,49.2
2017-12-23T08:52:53.878Z,49.15
2017-12-23T08:53:53.884Z,48.91
2017-12-23T08:54:53.704Z,49.05
2017-12-23T08:55:53.908Z,49.16
2017-12-23T08:56:53.676Z,48.97
2017-12-23T08:57:53.690Z,49.03
2017-12-23T08:58:53.712Z,49.07
2017-12-23T08:59:53.680Z,48.95
2017-12-23T09:00:53.698Z,49.03
2017-12-23T09:01:53.682Z,49.04
2017-12-23T09:02:53.699Z,49.12
2017-12-23T09:03:53.707Z,49.15
2017-12-23T09:04:53.712Z,49.03
2017-12-23T09:05:53.901Z,48.97
2017-12-23T09:06:53.769Z,48.98
2017-12-23T09:07:53.891Z,49.07
2017-12-23T09:08:53.716Z,49.16
2017-12-23T09:09:53.687Z,49.01
2017-12-23T09:10:53.680Z,49.02
2017-12-23T09:11:53.943Z,49.04
2017-12-23T09:12:53.891Z,48.95
2017-12-23T09:13:53.717Z,48.9
2017-12-23T09:14:53.714Z,49
2017-12-23T09:15:53.888Z,49.26
2017-12-23T09:16:53.895Z,49.02
2017-12-23T09:17:53.705Z,49.05
2017-12-23T09:18:53.902Z,49.02
2017-12-23T09:19:53.953Z,49.04
2017-12-23T09:20:53.903Z,49.03
2017-12-23T09:21:53.929Z,49.07
2017-12-23T09:22:53.922Z,49.1
2017-12-23T09:23:53.721Z,49.2
2017-12-23T09:24:53.917Z,49
2017-12-23T09:25:53.910Z,49.28
2017-12-23T09:26:53.894Z,49.16
2017-12-23T09:27:53.733Z,48.93
2017-12-23T09:28:53.897Z,49.05
2017-12-23T09:29:53.895Z,49.12
2017-12-23T09:30:53.921Z,49.07
2017-12-23T09:31:53.722Z,49.12
2017-12-23T09:32:53.852Z,49.07
2017-12-23T09:33:53.691Z,48.99
2017-12-23T09:34:53.899Z,49.07
2017-12-23T09:35:53.730Z,49.02
2017-12-23T09:36:53.905Z,49.13
2017-12-23T09:37:53.776Z,49.15
2017-12-23T09:38:53.724Z,48.96
2017-12-23T09:39:53.749Z,49.05
2017-12-23T09:40:53.919Z,49.09
2017-12-23T09:41:53.713Z,49.01
2017-12-23T09:42:53.711Z,49.15
2017-12-23T09:43:53.728Z,48.83
2017-12-23T09:44:53.941Z,48.98
2017-12-23T09:45:53.715Z,49.04
2017-12-23T09:46:53.920Z,49.22
2017-12-23T09:47:53.908Z,49.12
2017-12-23T09:48:53.992Z,49.1
2017-12-23T09:49:53.731Z,49.03
2017-12-23T09:50:53.726Z,49.01
2017-12-23T09:51:53.709Z,49.13
2017-12-23T09:52:53.697Z,49.16
2017-12-23T09:53:53.760Z,49.02
2017-12-23T09:54:53.923Z,49.02
2017-12-23T09:55:53.755Z,49.2
2017-12-23T09:56:53.926Z,49.06
2017-12-23T09:57:53.942Z,48.99
2017-12-23T09:58:53.719Z,49.09
2017-12-23T09:59:53.713Z,49.07
2017-12-23T10:00:53.728Z,49.19
2017-12-23T10:01:53.989Z,49.11
2017-12-23T10:02:53.699Z,48.87
2017-12-23T10:03:53.926Z,49
2017-12-23T10:04:53.940Z,49.07
2017-12-23T10:05:53.907Z,48.92
2017-12-23T10:06:53.709Z,49.11
2017-12-23T10:07:53.747Z,49.12
2017-12-23T10:08:53.865Z,49.1
2017-12-23T10:09:53.966Z,48.9
2017-12-23T10:10:53.940Z,49.07
2017-12-23T10:11:53.765Z,49.08
2017-12-23T10:12:53.946Z,49.15
2017-12-23T10:13:53.919Z,48.98
2017-12-23T10:14:53.971Z,49.03
2017-12-23T10:15:54.009Z,49.15
2017-12-23T10:16:53.911Z,48.91
2017-12-23T10:17:53.789Z,48.99
2017-12-23T10:18:53.938Z,49.14
2017-12-23T10:19:53.788Z,48.94
2017-12-23T10:20:53.932Z,49.11
2017-12-23T10:21:53.924Z,49.08
2017-12-23T10:22:53.911Z,49.07
2017-12-23T10:23:53.937Z,48.91
2017-12-23T10:24:53.954Z,49.19
2017-12-23T10:25:54.406Z,49.4
2017-12-23T10:26:25.101Z,49.61
2017-12-23T10:27:25.102Z,49.4
2017-12-23T10:28:25.354Z,49.03
2017-12-23T10:29:25.333Z,48.92
2017-12-23T10:30:25.143Z,48.84
2017-12-23T10:31:25.130Z,48.86
2017-12-23T10:32:25.111Z,48.85
2017-12-23T10:33:25.346Z,48.8
2017-12-23T10:34:25.304Z,48.98
2017-12-23T10:35:25.163Z,48.96
2017-12-23T10:36:25.124Z,49.17
2017-12-23T10:37:25.113Z,48.99
2017-12-23T10:38:25.105Z,49.06
2017-12-23T10:39:25.155Z,49.16
2017-12-23T10:40:25.149Z,49.19
2017-12-23T10:41:25.129Z,49.16
2017-12-23T10:42:25.122Z,49.14
2017-12-23T10:43:25.314Z,49.05
2017-12-23T10:44:25.310Z,49.05
2017-12-23T10:45:25.133Z,49.22
2017-12-23T10:46:25.350Z,49.25
2017-12-23T10:47:25.309Z,49.21
2017-12-23T10:48:25.309Z,49.16
2017-12-23T10:49:25.304Z,49.05
2017-12-23T10:50:25.341Z,49.03
2017-12-23T10:51:25.348Z,49.28
2017-12-23T10:52:25.142Z,49.03
2017-12-23T10:53:25.343Z,49.18
2017-12-23T10:54:25.135Z,49.07
2017-12-23T10:55:25.314Z,49.18
2017-12-23T10:56:25.417Z,49.12
2017-12-23T10:57:25.114Z,49.17
2017-12-23T10:58:25.356Z,48.97
2017-12-23T10:59:25.325Z,48.99
2017-12-23T11:00:25.325Z,49.17
2017-12-23T11:01:25.334Z,49.13
2017-12-23T11:02:25.338Z,49.13
2017-12-23T11:03:25.349Z,49.18
2017-12-23T11:04:25.144Z,49.05
2017-12-23T11:05:25.311Z,49.07
2017-12-23T11:06:25.241Z,48.91
2017-12-23T11:07:25.328Z,49.1
2017-12-23T11:08:25.335Z,49.02
2017-12-23T11:09:25.335Z,48.92
2017-12-23T11:10:25.152Z,48.92
2017-12-23T11:11:25.180Z,49.02
2017-12-23T11:12:25.131Z,49.05
2017-12-23T11:13:25.406Z,49.1
2017-12-23T11:14:25.329Z,49.05
2017-12-23T11:15:25.345Z,48.89
2017-12-23T11:16:25.306Z,48.94
2017-12-23T11:17:25.361Z,49.01
2017-12-23T11:18:25.135Z,49.08
2017-12-23T11:19:25.190Z,49.06
2017-12-23T11:20:25.344Z,49.02
2017-12-23T11:21:25.319Z,49
2017-12-23T11:22:25.367Z,48.92
2017-12-23T11:23:25.138Z,49.15
2017-12-23T11:24:25.328Z,49.14
2017-12-23T11:25:25.144Z,48.93
2017-12-23T11:26:25.343Z,49.16
2017-12-23T11:27:25.254Z,48.88
2017-12-23T11:28:25.358Z,49.07
2017-12-23T11:29:25.370Z,49.01
2017-12-23T11:30:25.328Z,49.17
2017-12-23T11:31:25.318Z,49.16
2017-12-23T11:32:25.174Z,49.11
2017-12-23T11:33:25.182Z,49.04
2017-12-23T11:34:25.376Z,49.21
2017-12-23T11:35:25.185Z,49.15
2017-12-23T11:36:25.157Z,49.2
2017-12-23T11:37:25.338Z,49.16
2017-12-23T11:38:25.325Z,49.02
2017-12-23T11:39:25.188Z,49.22
2017-12-23T11:40:25.350Z,49.09
2017-12-23T11:41:25.134Z,49.22
2017-12-23T11:42:25.169Z,49.22
2017-12-23T11:43:25.326Z,49.05
2017-12-23T11:44:25.138Z,49.21
2017-12-23T11:45:25.369Z,49.28
2017-12-23T11:46:25.169Z,49.17
2017-12-23T11:47:25.349Z,49.22
2017-12-23T11:48:25.355Z,49.3
2017-12-23T11:49:25.188Z,49.22
2017-12-23T11:50:25.188Z,49.21
2017-12-23T11:51:25.362Z,49.28
2017-12-23T11:52:25.169Z,49.2
2017-12-23T11:53:25.387Z,49.23
2017-12-23T11:54:25.168Z,49.28
2017-12-23T11:55:25.217Z,49.26
2017-12-23T11:56:25.331Z,49.15
2017-12-23T11:57:25.376Z,49.11
2017-12-23T11:58:25.244Z,49.18
2017-12-23T11:59:25.157Z,49.18
2017-12-23T12:00:25.382Z,49.33
2017-12-23T12:01:25.369Z,49.15
2017-12-23T12:02:25.142Z,49.25
2017-12-23T12:03:25.369Z,49.2
2017-12-23T12:04:25.153Z,49.12
2017-12-23T12:05:25.413Z,49.06
2017-12-23T12:06:25.376Z,49.14
2017-12-23T12:07:25.166Z,49.14
2017-12-23T12:08:25.342Z,49.12
2017-12-23T12:09:25.350Z,49.25
2017-12-23T12:10:25.289Z,49.14
2017-12-23T12:11:25.219Z,49.13
2017-12-23T12:12:25.396Z,49.37
2017-12-23T12:13:25.419Z,49.24
2017-12-23T12:14:25.364Z,48.99
2017-12-23T12:15:25.451Z,49.2
2017-12-23T12:16:25.550Z,49.14
2017-12-23T12:17:25.369Z,49.02
2017-12-23T12:18:25.193Z,49.02
2017-12-23T12:19:25.464Z,49.11
2017-12-23T12:20:25.439Z,49.15
2017-12-23T12:21:25.253Z,49.02
2017-12-23T12:22:25.266Z,49.18
2017-12-23T12:23:25.172Z,48.97
2017-12-23T12:24:25.431Z,49.05
2017-12-23T12:25:25.442Z,49.06
2017-12-23T12:26:25.418Z,48.96
2017-12-23T12:27:25.259Z,49.07
2017-12-23T12:28:25.481Z,49
2017-12-23T12:29:25.404Z,49.07
2017-12-23T12:30:25.179Z,49.13
2017-12-23T12:31:25.163Z,48.96
2017-12-23T12:32:25.367Z,49.06
2017-12-23T12:33:25.437Z,48.89
2017-12-23T12:34:25.373Z,48.98
2017-12-23T12:35:25.409Z,48.96
2017-12-23T12:36:25.172Z,48.86
2017-12-23T12:37:25.446Z,49.05
2017-12-23T12:38:25.451Z,48.93
2017-12-23T12:39:25.395Z,49.01
2017-12-23T12:40:25.504Z,48.87
2017-12-23T12:41:25.197Z,48.87
2017-12-23T12:42:25.210Z,49.02
2017-12-23T12:43:25.230Z,48.92
2017-12-23T12:44:25.358Z,49
2017-12-23T12:45:25.469Z,49.06
2017-12-23T12:46:25.489Z,49.01
2017-12-23T12:47:25.197Z,49.04
2017-12-23T12:48:25.199Z,49.03
2017-12-23T12:49:25.393Z,49.06
2017-12-23T12:50:25.431Z,48.8
2017-12-23T12:51:25.191Z,48.78
2017-12-23T12:52:25.373Z,49.03
2017-12-23T12:53:25.182Z,48.93
2017-12-23T12:54:25.292Z,48.9
2017-12-23T12:55:25.218Z,48.89
2017-12-23T12:56:25.171Z,48.93
2017-12-23T12:57:25.353Z,48.93
2017-12-23T12:58:25.492Z,48.94
2017-12-23T12:59:25.440Z,48.9
2017-12-23T13:00:25.465Z,48.93
2017-12-23T13:01:25.239Z,48.93
2017-12-23T13:02:25.367Z,48.86
2017-12-23T13:03:25.381Z,48.89
2017-12-23T13:04:25.240Z,48.94
2017-12-23T13:05:25.178Z,48.93
2017-12-23T13:06:25.234Z,48.82
2017-12-23T13:07:25.194Z,48.92
2017-12-23T13:08:25.381Z,48.82
2017-12-23T13:09:25.395Z,48.71
2017-12-23T13:10:25.467Z,48.99
2017-12-23T13:11:25.357Z,48.92
2017-12-23T13:12:25.242Z,48.98
2017-12-23T13:13:25.376Z,49.09
2017-12-23T13:14:25.386Z,48.81
2017-12-23T13:15:25.393Z,48.82
2017-12-23T13:16:25.521Z,48.86
2017-12-23T13:17:25.276Z,48.84
2017-12-23T13:18:25.463Z,48.82
2017-12-23T13:19:25.219Z,48.92
2017-12-23T13:20:25.157Z,48.9
2017-12-23T13:21:25.191Z,48.86
2017-12-23T13:22:25.411Z,48.97
2017-12-23T13:23:25.223Z,48.9
2017-12-23T13:24:25.195Z,49.02
2017-12-23T13:25:25.378Z,49.02
2017-12-23T13:26:25.368Z,48.79
2017-12-23T13:27:25.418Z,48.86
2017-12-23T13:28:25.204Z,48.73
2017-12-23T13:29:25.407Z,48.82
2017-12-23T13:30:25.191Z,49.01
2017-12-23T13:31:25.504Z,48.81
2017-12-23T13:32:25.235Z,48.8
2017-12-23T13:33:25.198Z,48.8
2017-12-23T13:34:25.326Z,48.95
2017-12-23T13:35:25.482Z,48.77
2017-12-23T13:36:25.221Z,48.69
2017-12-23T13:37:25.387Z,48.8
2017-12-23T13:38:25.216Z,48.89
2017-12-23T13:39:25.215Z,48.97
2017-12-23T13:40:25.520Z,48.94
2017-12-23T13:41:25.207Z,48.87
2017-12-23T13:42:25.402Z,48.94
2017-12-23T13:43:25.513Z,48.87
2017-12-23T13:44:25.234Z,48.95
2017-12-23T13:45:25.231Z,48.83
2017-12-23T13:46:25.516Z,48.88
2017-12-23T13:47:25.405Z,48.85
2017-12-23T13:48:25.471Z,48.94
2017-12-23T13:49:25.207Z,48.98
2017-12-23T13:50:25.420Z,48.8